sensor_id;sensor_type;location;lat;lon;timestamp;P1;durP1;ratioP1;P2;durP2;ratioP2
10461;SDS011;5278;42.656;23.374;2022-10-30T00:00:49;8.37;;;5.60;;
10461;SDS011;5278;42.656;23.374;2022-10-30T00:03:16;6.73;;;5.30;;
10461;SDS011;5278;42.656;23.374;2022-10-30T00:05:43;6.33;;;4.67;;
10461;SDS011;5278;42.656;23.374;2022-10-30T00:08:11;5.43;;;4.40;;
10461;SDS011;5278;42.656;23.374;2022-10-30T00:10:41;4.40;;;4.00;;
10461;SDS011;5278;42.656;23.374;2022-10-30T00:13:08;7.87;;;5.37;;
10461;SDS011;5278;42.656;23.374;2022-10-30T00:15:36;6.90;;;4.73;;
10461;SDS011;5278;42.656;23.374;2022-10-30T00:18:03;9.07;;;5.60;;
10461;SDS011;5278;42.656;23.374;2022-10-30T00:20:31;6.83;;;4.57;;
10461;SDS011;5278;42.656;23.374;2022-10-30T00:22:58;5.57;;;5.00;;
10461;SDS011;5278;42.656;23.374;2022-10-30T00:25:24;10.63;;;5.93;;
10461;SDS011;5278;42.656;23.374;2022-10-30T00:27:53;9.00;;;4.97;;
10461;SDS011;5278;42.656;23.374;2022-10-30T00:30:19;7.17;;;4.67;;
10461;SDS011;5278;42.656;23.374;2022-10-30T00:32:46;7.13;;;4.77;;
10461;SDS011;5278;42.656;23.374;2022-10-30T00:35:13;8.77;;;5.77;;
10461;SDS011;5278;42.656;23.374;2022-10-30T00:37:40;6.13;;;5.37;;
10461;SDS011;5278;42.656;23.374;2022-10-30T00:40:08;7.93;;;5.60;;
10461;SDS011;5278;42.656;23.374;2022-10-30T00:42:40;9.77;;;5.63;;
10461;SDS011;5278;42.656;23.374;2022-10-30T00:45:11;8.37;;;5.67;;
10461;SDS011;5278;42.656;23.374;2022-10-30T00:47:40;6.90;;;5.53;;
10461;SDS011;5278;42.656;23.374;2022-10-30T00:50:10;8.70;;;5.07;;
10461;SDS011;5278;42.656;23.374;2022-10-30T00:52:39;8.17;;;5.20;;
10461;SDS011;5278;42.656;23.374;2022-10-30T00:55:12;9.40;;;6.43;;
10461;SDS011;5278;42.656;23.374;2022-10-30T00:57:42;9.30;;;5.90;;
10461;SDS011;5278;42.656;23.374;2022-10-30T01:00:12;10.00;;;5.53;;
10461;SDS011;5278;42.656;23.374;2022-10-30T01:02:39;9.17;;;6.07;;
10461;SDS011;5278;42.656;23.374;2022-10-30T01:05:08;9.47;;;5.83;;
10461;SDS011;5278;42.656;23.374;2022-10-30T01:07:36;7.53;;;6.60;;
10461;SDS011;5278;42.656;23.374;2022-10-30T01:10:03;7.27;;;5.80;;
10461;SDS011;5278;42.656;23.374;2022-10-30T01:12:30;10.33;;;6.83;;
10461;SDS011;5278;42.656;23.374;2022-10-30T01:14:57;7.47;;;5.70;;
10461;SDS011;5278;42.656;23.374;2022-10-30T01:20:26;8.83;;;6.27;;
10461;SDS011;5278;42.656;23.374;2022-10-30T01:23:14;10.40;;;6.00;;
10461;SDS011;5278;42.656;23.374;2022-10-30T01:25:52;7.83;;;6.07;;
10461;SDS011;5278;42.656;23.374;2022-10-30T01:28:38;8.83;;;6.30;;
10461;SDS011;5278;42.656;23.374;2022-10-30T01:31:20;8.93;;;5.47;;
10461;SDS011;5278;42.656;23.374;2022-10-30T01:34:08;8.47;;;5.60;;
10461;SDS011;5278;42.656;23.374;2022-10-30T01:36:45;8.40;;;5.80;;
10461;SDS011;5278;42.656;23.374;2022-10-30T01:39:16;8.07;;;5.90;;
10461;SDS011;5278;42.656;23.374;2022-10-30T01:41:46;9.13;;;5.73;;
10461;SDS011;5278;42.656;23.374;2022-10-30T01:44:14;7.93;;;6.30;;
10461;SDS011;5278;42.656;23.374;2022-10-30T01:46:51;7.00;;;5.70;;
10461;SDS011;5278;42.656;23.374;2022-10-30T01:52:31;8.03;;;5.27;;
10461;SDS011;5278;42.656;23.374;2022-10-30T01:55:09;10.87;;;6.40;;
10461;SDS011;5278;42.656;23.374;2022-10-30T01:57:47;9.10;;;5.73;;
10461;SDS011;5278;42.656;23.374;2022-10-30T02:00:20;8.80;;;6.00;;
10461;SDS011;5278;42.656;23.374;2022-10-30T02:02:47;7.90;;;5.97;;
10461;SDS011;5278;42.656;23.374;2022-10-30T02:05:19;7.17;;;5.80;;
10461;SDS011;5278;42.656;23.374;2022-10-30T02:07:51;7.30;;;5.30;;
10461;SDS011;5278;42.656;23.374;2022-10-30T02:10:18;8.80;;;6.67;;
10461;SDS011;5278;42.656;23.374;2022-10-30T02:12:45;7.53;;;5.70;;
10461;SDS011;5278;42.656;23.374;2022-10-30T02:15:12;8.13;;;6.20;;
10461;SDS011;5278;42.656;23.374;2022-10-30T02:17:39;9.27;;;5.60;;
10461;SDS011;5278;42.656;23.374;2022-10-30T02:20:07;9.07;;;6.43;;
10461;SDS011;5278;42.656;23.374;2022-10-30T02:22:40;9.40;;;6.00;;
10461;SDS011;5278;42.656;23.374;2022-10-30T02:25:07;11.83;;;7.43;;
10461;SDS011;5278;42.656;23.374;2022-10-30T02:27:35;8.60;;;6.40;;
10461;SDS011;5278;42.656;23.374;2022-10-30T02:30:02;9.00;;;6.73;;
10461;SDS011;5278;42.656;23.374;2022-10-30T02:32:29;10.43;;;7.07;;
10461;SDS011;5278;42.656;23.374;2022-10-30T02:34:58;9.77;;;6.53;;
10461;SDS011;5278;42.656;23.374;2022-10-30T02:37:26;9.40;;;6.70;;
10461;SDS011;5278;42.656;23.374;2022-10-30T02:39:53;9.43;;;6.57;;
10461;SDS011;5278;42.656;23.374;2022-10-30T02:42:20;7.87;;;7.10;;
10461;SDS011;5278;42.656;23.374;2022-10-30T02:44:47;10.23;;;6.70;;
10461;SDS011;5278;42.656;23.374;2022-10-30T02:47:14;8.17;;;6.30;;
10461;SDS011;5278;42.656;23.374;2022-10-30T02:49:40;11.23;;;7.73;;
10461;SDS011;5278;42.656;23.374;2022-10-30T02:52:07;9.00;;;7.50;;
10461;SDS011;5278;42.656;23.374;2022-10-30T02:54:36;12.73;;;6.97;;
10461;SDS011;5278;42.656;23.374;2022-10-30T02:57:03;9.80;;;7.60;;
10461;SDS011;5278;42.656;23.374;2022-10-30T02:59:30;12.73;;;7.40;;
10461;SDS011;5278;42.656;23.374;2022-10-30T03:01:57;11.87;;;7.50;;
10461;SDS011;5278;42.656;23.374;2022-10-30T03:04:23;10.23;;;7.47;;
10461;SDS011;5278;42.656;23.374;2022-10-30T03:06:50;11.37;;;7.83;;
10461;SDS011;5278;42.656;23.374;2022-10-30T03:09:17;13.67;;;7.60;;
10461;SDS011;5278;42.656;23.374;2022-10-30T03:11:46;12.80;;;7.40;;
10461;SDS011;5278;42.656;23.374;2022-10-30T03:14:13;11.83;;;8.03;;
10461;SDS011;5278;42.656;23.374;2022-10-30T03:16:40;7.47;;;6.70;;
10461;SDS011;5278;42.656;23.374;2022-10-30T03:19:07;11.73;;;7.13;;
10461;SDS011;5278;42.656;23.374;2022-10-30T03:21:34;10.77;;;7.77;;
10461;SDS011;5278;42.656;23.374;2022-10-30T03:24:01;10.27;;;7.97;;
10461;SDS011;5278;42.656;23.374;2022-10-30T03:26:28;11.37;;;7.37;;
10461;SDS011;5278;42.656;23.374;2022-10-30T03:28:56;11.47;;;7.60;;
10461;SDS011;5278;42.656;23.374;2022-10-30T03:31:23;11.37;;;7.57;;
10461;SDS011;5278;42.656;23.374;2022-10-30T03:33:50;12.20;;;7.50;;
10461;SDS011;5278;42.656;23.374;2022-10-30T03:36:17;10.37;;;8.20;;
10461;SDS011;5278;42.656;23.374;2022-10-30T03:38:44;11.43;;;8.17;;
10461;SDS011;5278;42.656;23.374;2022-10-30T03:41:10;11.37;;;8.47;;
10461;SDS011;5278;42.656;23.374;2022-10-30T03:43:37;12.10;;;7.93;;
10461;SDS011;5278;42.656;23.374;2022-10-30T03:46:06;14.27;;;8.20;;
10461;SDS011;5278;42.656;23.374;2022-10-30T03:48:34;11.30;;;8.07;;
10461;SDS011;5278;42.656;23.374;2022-10-30T03:51:01;11.63;;;8.13;;
10461;SDS011;5278;42.656;23.374;2022-10-30T03:53:28;10.73;;;8.13;;
10461;SDS011;5278;42.656;23.374;2022-10-30T03:55:58;14.43;;;8.57;;
10461;SDS011;5278;42.656;23.374;2022-10-30T03:58:26;12.07;;;7.67;;
10461;SDS011;5278;42.656;23.374;2022-10-30T04:00:54;11.30;;;7.60;;
10461;SDS011;5278;42.656;23.374;2022-10-30T04:03:26;9.50;;;7.80;;
10461;SDS011;5278;42.656;23.374;2022-10-30T04:05:53;13.57;;;8.87;;
10461;SDS011;5278;42.656;23.374;2022-10-30T04:08:20;10.63;;;8.80;;
10461;SDS011;5278;42.656;23.374;2022-10-30T04:10:47;10.90;;;9.20;;
10461;SDS011;5278;42.656;23.374;2022-10-30T04:13:16;10.77;;;8.07;;
10461;SDS011;5278;42.656;23.374;2022-10-30T04:15:45;11.13;;;8.37;;
10461;SDS011;5278;42.656;23.374;2022-10-30T04:18:13;14.80;;;9.83;;
10461;SDS011;5278;42.656;23.374;2022-10-30T04:20:42;11.33;;;8.20;;
10461;SDS011;5278;42.656;23.374;2022-10-30T04:23:11;13.50;;;8.13;;
10461;SDS011;5278;42.656;23.374;2022-10-30T04:25:40;11.37;;;8.77;;
10461;SDS011;5278;42.656;23.374;2022-10-30T04:28:07;13.60;;;7.63;;
10461;SDS011;5278;42.656;23.374;2022-10-30T04:30:34;9.73;;;7.37;;
10461;SDS011;5278;42.656;23.374;2022-10-30T04:33:03;11.80;;;7.87;;
10461;SDS011;5278;42.656;23.374;2022-10-30T04:35:32;10.33;;;7.17;;
10461;SDS011;5278;42.656;23.374;2022-10-30T04:38:03;12.10;;;6.87;;
10461;SDS011;5278;42.656;23.374;2022-10-30T04:40:33;12.13;;;8.40;;
10461;SDS011;5278;42.656;23.374;2022-10-30T04:43:00;9.67;;;7.93;;
10461;SDS011;5278;42.656;23.374;2022-10-30T04:45:28;11.13;;;8.47;;
10461;SDS011;5278;42.656;23.374;2022-10-30T04:47:59;9.77;;;7.50;;
10461;SDS011;5278;42.656;23.374;2022-10-30T04:50:26;12.27;;;8.53;;
10461;SDS011;5278;42.656;23.374;2022-10-30T04:52:57;9.33;;;7.17;;
10461;SDS011;5278;42.656;23.374;2022-10-30T04:55:26;9.83;;;7.93;;
10461;SDS011;5278;42.656;23.374;2022-10-30T04:57:54;12.77;;;8.30;;
10461;SDS011;5278;42.656;23.374;2022-10-30T05:00:22;10.33;;;8.20;;
10461;SDS011;5278;42.656;23.374;2022-10-30T05:02:49;11.27;;;7.40;;
10461;SDS011;5278;42.656;23.374;2022-10-30T05:05:16;12.73;;;7.13;;
10461;SDS011;5278;42.656;23.374;2022-10-30T05:07:43;14.67;;;9.33;;
10461;SDS011;5278;42.656;23.374;2022-10-30T05:10:10;13.67;;;9.40;;
10461;SDS011;5278;42.656;23.374;2022-10-30T05:12:41;11.73;;;8.73;;
10461;SDS011;5278;42.656;23.374;2022-10-30T05:15:08;13.40;;;8.37;;
10461;SDS011;5278;42.656;23.374;2022-10-30T05:17:36;14.97;;;8.73;;
10461;SDS011;5278;42.656;23.374;2022-10-30T05:20:03;11.73;;;9.40;;
10461;SDS011;5278;42.656;23.374;2022-10-30T05:22:31;9.07;;;7.53;;
10461;SDS011;5278;42.656;23.374;2022-10-30T05:24:58;8.33;;;7.10;;
10461;SDS011;5278;42.656;23.374;2022-10-30T05:27:25;15.77;;;9.17;;
10461;SDS011;5278;42.656;23.374;2022-10-30T05:29:53;12.53;;;8.37;;
10461;SDS011;5278;42.656;23.374;2022-10-30T05:32:20;14.03;;;8.57;;
10461;SDS011;5278;42.656;23.374;2022-10-30T05:34:47;10.17;;;8.17;;
10461;SDS011;5278;42.656;23.374;2022-10-30T05:37:14;9.80;;;6.80;;
10461;SDS011;5278;42.656;23.374;2022-10-30T05:39:41;8.13;;;6.57;;
10461;SDS011;5278;42.656;23.374;2022-10-30T05:42:08;9.83;;;6.83;;
10461;SDS011;5278;42.656;23.374;2022-10-30T05:44:35;9.13;;;7.00;;
10461;SDS011;5278;42.656;23.374;2022-10-30T05:47:03;11.57;;;6.90;;
10461;SDS011;5278;42.656;23.374;2022-10-30T05:49:30;11.33;;;6.87;;
10461;SDS011;5278;42.656;23.374;2022-10-30T05:51:57;11.53;;;8.23;;
10461;SDS011;5278;42.656;23.374;2022-10-30T05:54:24;9.13;;;7.03;;
10461;SDS011;5278;42.656;23.374;2022-10-30T05:56:51;9.13;;;7.03;;
10461;SDS011;5278;42.656;23.374;2022-10-30T05:59:18;9.53;;;7.60;;
10461;SDS011;5278;42.656;23.374;2022-10-30T06:01:44;10.57;;;7.13;;
10461;SDS011;5278;42.656;23.374;2022-10-30T06:04:13;8.43;;;6.43;;
10461;SDS011;5278;42.656;23.374;2022-10-30T06:06:40;10.87;;;7.87;;
10461;SDS011;5278;42.656;23.374;2022-10-30T06:09:06;12.53;;;8.17;;
10461;SDS011;5278;42.656;23.374;2022-10-30T06:11:33;11.07;;;7.87;;
10461;SDS011;5278;42.656;23.374;2022-10-30T06:14:00;11.50;;;8.70;;
10461;SDS011;5278;42.656;23.374;2022-10-30T06:16:27;12.93;;;8.47;;
10461;SDS011;5278;42.656;23.374;2022-10-30T06:18:54;12.93;;;8.17;;
10461;SDS011;5278;42.656;23.374;2022-10-30T06:21:22;11.33;;;7.70;;
10461;SDS011;5278;42.656;23.374;2022-10-30T06:23:49;12.77;;;8.63;;
10461;SDS011;5278;42.656;23.374;2022-10-30T06:26:16;11.37;;;8.37;;
10461;SDS011;5278;42.656;23.374;2022-10-30T06:28:42;14.03;;;8.50;;
10461;SDS011;5278;42.656;23.374;2022-10-30T06:31:09;14.97;;;8.30;;
10461;SDS011;5278;42.656;23.374;2022-10-30T06:33:36;14.87;;;8.40;;
10461;SDS011;5278;42.656;23.374;2022-10-30T06:36:03;8.43;;;6.70;;
10461;SDS011;5278;42.656;23.374;2022-10-30T06:38:31;12.60;;;8.03;;
10461;SDS011;5278;42.656;23.374;2022-10-30T06:40:58;9.27;;;7.10;;
10461;SDS011;5278;42.656;23.374;2022-10-30T06:43:25;11.03;;;7.67;;
10461;SDS011;5278;42.656;23.374;2022-10-30T06:45:52;12.27;;;8.53;;
10461;SDS011;5278;42.656;23.374;2022-10-30T06:48:18;9.83;;;8.13;;
10461;SDS011;5278;42.656;23.374;2022-10-30T06:50:45;15.23;;;9.23;;
10461;SDS011;5278;42.656;23.374;2022-10-30T06:53:12;13.37;;;9.60;;
10461;SDS011;5278;42.656;23.374;2022-10-30T06:55:40;14.27;;;9.73;;
10461;SDS011;5278;42.656;23.374;2022-10-30T06:58:07;12.10;;;9.23;;
10461;SDS011;5278;42.656;23.374;2022-10-30T07:00:34;9.87;;;8.60;;
10461;SDS011;5278;42.656;23.374;2022-10-30T07:03:01;12.80;;;8.27;;
10461;SDS011;5278;42.656;23.374;2022-10-30T07:05:28;12.27;;;8.87;;
10461;SDS011;5278;42.656;23.374;2022-10-30T07:07:56;9.83;;;7.80;;
10461;SDS011;5278;42.656;23.374;2022-10-30T07:10:23;12.47;;;8.03;;
10461;SDS011;5278;42.656;23.374;2022-10-30T07:12:52;10.20;;;7.20;;
10461;SDS011;5278;42.656;23.374;2022-10-30T07:15:19;10.20;;;7.67;;
10461;SDS011;5278;42.656;23.374;2022-10-30T07:17:53;10.00;;;7.87;;
10461;SDS011;5278;42.656;23.374;2022-10-30T07:20:20;10.27;;;7.23;;
10461;SDS011;5278;42.656;23.374;2022-10-30T07:22:48;10.07;;;7.57;;
10461;SDS011;5278;42.656;23.374;2022-10-30T07:25:14;10.43;;;7.73;;
10461;SDS011;5278;42.656;23.374;2022-10-30T07:27:42;10.77;;;7.97;;
10461;SDS011;5278;42.656;23.374;2022-10-30T07:30:11;9.60;;;8.03;;
10461;SDS011;5278;42.656;23.374;2022-10-30T07:32:39;7.90;;;7.07;;
10461;SDS011;5278;42.656;23.374;2022-10-30T07:35:07;10.50;;;7.80;;
10461;SDS011;5278;42.656;23.374;2022-10-30T07:37:34;13.93;;;9.10;;
10461;SDS011;5278;42.656;23.374;2022-10-30T07:40:01;9.97;;;7.63;;
10461;SDS011;5278;42.656;23.374;2022-10-30T07:42:28;16.40;;;8.67;;
10461;SDS011;5278;42.656;23.374;2022-10-30T07:44:55;8.27;;;7.33;;
10461;SDS011;5278;42.656;23.374;2022-10-30T07:47:23;10.10;;;8.30;;
10461;SDS011;5278;42.656;23.374;2022-10-30T07:49:50;9.27;;;8.30;;
10461;SDS011;5278;42.656;23.374;2022-10-30T07:52:17;8.97;;;7.97;;
10461;SDS011;5278;42.656;23.374;2022-10-30T07:54:43;8.97;;;8.07;;
10461;SDS011;5278;42.656;23.374;2022-10-30T07:57:11;10.57;;;7.90;;
10461;SDS011;5278;42.656;23.374;2022-10-30T07:59:37;11.47;;;7.87;;
10461;SDS011;5278;42.656;23.374;2022-10-30T08:02:04;10.07;;;8.63;;
10461;SDS011;5278;42.656;23.374;2022-10-30T08:04:33;13.37;;;8.07;;
10461;SDS011;5278;42.656;23.374;2022-10-30T08:06:59;12.33;;;7.97;;
10461;SDS011;5278;42.656;23.374;2022-10-30T08:09:26;10.47;;;8.70;;
10461;SDS011;5278;42.656;23.374;2022-10-30T08:11:53;12.70;;;8.37;;
10461;SDS011;5278;42.656;23.374;2022-10-30T08:14:20;9.40;;;7.80;;
10461;SDS011;5278;42.656;23.374;2022-10-30T08:16:46;9.40;;;7.73;;
10461;SDS011;5278;42.656;23.374;2022-10-30T08:19:13;11.17;;;8.27;;
10461;SDS011;5278;42.656;23.374;2022-10-30T08:21:41;10.47;;;8.67;;
10461;SDS011;5278;42.656;23.374;2022-10-30T08:24:08;12.67;;;7.70;;
10461;SDS011;5278;42.656;23.374;2022-10-30T08:26:35;19.60;;;10.30;;
10461;SDS011;5278;42.656;23.374;2022-10-30T08:29:02;11.50;;;8.17;;
10461;SDS011;5278;42.656;23.374;2022-10-30T08:31:29;9.40;;;7.33;;
10461;SDS011;5278;42.656;23.374;2022-10-30T08:33:56;10.25;;;7.35;;
10461;SDS011;5278;42.656;23.374;2022-10-30T08:36:23;8.88;;;6.95;;
10461;SDS011;5278;42.656;23.374;2022-10-30T08:38:51;13.55;;;8.77;;
10461;SDS011;5278;42.656;23.374;2022-10-30T08:41:18;12.55;;;8.07;;
10461;SDS011;5278;42.656;23.374;2022-10-30T08:43:44;10.75;;;7.55;;
10461;SDS011;5278;42.656;23.374;2022-10-30T08:46:11;9.50;;;8.50;;
10461;SDS011;5278;42.656;23.374;2022-10-30T08:48:38;9.35;;;8.35;;
10461;SDS011;5278;42.656;23.374;2022-10-30T08:51:05;10.88;;;7.93;;
10461;SDS011;5278;42.656;23.374;2022-10-30T08:53:32;11.30;;;9.15;;
10461;SDS011;5278;42.656;23.374;2022-10-30T08:56:00;11.43;;;8.38;;
10461;SDS011;5278;42.656;23.374;2022-10-30T08:58:27;11.13;;;8.60;;
10461;SDS011;5278;42.656;23.374;2022-10-30T09:00:53;12.10;;;8.55;;
10461;SDS011;5278;42.656;23.374;2022-10-30T09:03:20;11.77;;;8.75;;
10461;SDS011;5278;42.656;23.374;2022-10-30T09:05:47;14.95;;;8.50;;
10461;SDS011;5278;42.656;23.374;2022-10-30T09:08:14;9.88;;;8.88;;
10461;SDS011;5278;42.656;23.374;2022-10-30T09:10:41;9.23;;;8.23;;
10461;SDS011;5278;42.656;23.374;2022-10-30T09:13:09;9.55;;;8.20;;
10461;SDS011;5278;42.656;23.374;2022-10-30T09:15:36;9.35;;;8.43;;
10461;SDS011;5278;42.656;23.374;2022-10-30T09:18:03;14.27;;;8.93;;
10461;SDS011;5278;42.656;23.374;2022-10-30T09:20:30;13.25;;;8.48;;
10461;SDS011;5278;42.656;23.374;2022-10-30T09:22:57;11.48;;;8.82;;
10461;SDS011;5278;42.656;23.374;2022-10-30T09:25:24;11.23;;;9.05;;
10461;SDS011;5278;42.656;23.374;2022-10-30T09:27:51;14.73;;;11.95;;
10461;SDS011;5278;42.656;23.374;2022-10-30T09:30:19;13.00;;;10.18;;
10461;SDS011;5278;42.656;23.374;2022-10-30T09:32:52;9.75;;;8.82;;
10461;SDS011;5278;42.656;23.374;2022-10-30T09:35:19;10.00;;;8.80;;
10461;SDS011;5278;42.656;23.374;2022-10-30T09:37:46;13.55;;;8.98;;
10461;SDS011;5278;42.656;23.374;2022-10-30T09:40:16;13.35;;;9.88;;
10461;SDS011;5278;42.656;23.374;2022-10-30T09:42:48;11.60;;;9.40;;
10461;SDS011;5278;42.656;23.374;2022-10-30T09:45:30;12.38;;;9.27;;
10461;SDS011;5278;42.656;23.374;2022-10-30T09:51:19;14.35;;;9.75;;
10461;SDS011;5278;42.656;23.374;2022-10-30T09:53:59;10.82;;;9.70;;
10461;SDS011;5278;42.656;23.374;2022-10-30T09:56:35;9.50;;;8.65;;
10461;SDS011;5278;42.656;23.374;2022-10-30T09:59:12;11.85;;;9.32;;
10461;SDS011;5278;42.656;23.374;2022-10-30T10:01:50;10.68;;;9.50;;
10461;SDS011;5278;42.656;23.374;2022-10-30T10:04:24;10.60;;;9.07;;
10461;SDS011;5278;42.656;23.374;2022-10-30T10:06:57;11.48;;;8.88;;
10461;SDS011;5278;42.656;23.374;2022-10-30T10:09:28;10.82;;;9.73;;
10461;SDS011;5278;42.656;23.374;2022-10-30T10:11:57;11.60;;;8.98;;
10461;SDS011;5278;42.656;23.374;2022-10-30T10:14:30;9.27;;;8.38;;
10461;SDS011;5278;42.656;23.374;2022-10-30T10:17:01;11.23;;;8.20;;
10461;SDS011;5278;42.656;23.374;2022-10-30T10:19:31;9.90;;;7.43;;
10461;SDS011;5278;42.656;23.374;2022-10-30T10:22:05;8.63;;;7.35;;
10461;SDS011;5278;42.656;23.374;2022-10-30T10:24:45;7.82;;;7.00;;
10461;SDS011;5278;42.656;23.374;2022-10-30T10:27:15;8.70;;;7.28;;
10461;SDS011;5278;42.656;23.374;2022-10-30T10:29:53;9.20;;;6.78;;
10461;SDS011;5278;42.656;23.374;2022-10-30T10:32:47;9.55;;;5.43;;
10461;SDS011;5278;42.656;23.374;2022-10-30T10:35:54;11.75;;;6.38;;
10461;SDS011;5278;42.656;23.374;2022-10-30T10:38:34;8.73;;;7.20;;
10461;SDS011;5278;42.656;23.374;2022-10-30T10:41:12;8.20;;;7.28;;
10461;SDS011;5278;42.656;23.374;2022-10-30T10:43:48;8.68;;;7.03;;
10461;SDS011;5278;42.656;23.374;2022-10-30T10:46:36;11.13;;;7.68;;
10461;SDS011;5278;42.656;23.374;2022-10-30T10:49:18;8.38;;;7.30;;
10461;SDS011;5278;42.656;23.374;2022-10-30T10:51:58;9.57;;;6.85;;
10461;SDS011;5278;42.656;23.374;2022-10-30T10:54:30;8.20;;;7.40;;
10461;SDS011;5278;42.656;23.374;2022-10-30T10:57:04;11.30;;;7.38;;
10461;SDS011;5278;42.656;23.374;2022-10-30T10:59:33;8.32;;;6.60;;
10461;SDS011;5278;42.656;23.374;2022-10-30T11:02:11;10.20;;;6.63;;
10461;SDS011;5278;42.656;23.374;2022-10-30T11:04:54;8.60;;;7.22;;
10461;SDS011;5278;42.656;23.374;2022-10-30T11:07:31;7.40;;;5.53;;
10461;SDS011;5278;42.656;23.374;2022-10-30T11:10:00;7.50;;;5.65;;
10461;SDS011;5278;42.656;23.374;2022-10-30T11:12:28;6.22;;;4.85;;
10461;SDS011;5278;42.656;23.374;2022-10-30T11:14:57;5.65;;;5.00;;
10461;SDS011;5278;42.656;23.374;2022-10-30T11:17:27;7.55;;;4.80;;
10461;SDS011;5278;42.656;23.374;2022-10-30T11:20:11;5.22;;;4.35;;
10461;SDS011;5278;42.656;23.374;2022-10-30T11:22:41;5.20;;;4.05;;
10461;SDS011;5278;42.656;23.374;2022-10-30T11:25:17;6.20;;;4.15;;
10461;SDS011;5278;42.656;23.374;2022-10-30T11:27:46;5.57;;;3.92;;
10461;SDS011;5278;42.656;23.374;2022-10-30T11:30:18;5.43;;;3.88;;
10461;SDS011;5278;42.656;23.374;2022-10-30T11:32:46;6.82;;;4.10;;
10461;SDS011;5278;42.656;23.374;2022-10-30T11:35:16;6.13;;;3.97;;
10461;SDS011;5278;42.656;23.374;2022-10-30T11:37:45;6.30;;;4.00;;
10461;SDS011;5278;42.656;23.374;2022-10-30T11:40:16;4.82;;;3.90;;
10461;SDS011;5278;42.656;23.374;2022-10-30T11:42:45;6.40;;;4.05;;
10461;SDS011;5278;42.656;23.374;2022-10-30T11:45:15;8.32;;;3.58;;
10461;SDS011;5278;42.656;23.374;2022-10-30T11:47:45;3.92;;;3.53;;
10461;SDS011;5278;42.656;23.374;2022-10-30T11:50:18;5.85;;;4.63;;
10461;SDS011;5278;42.656;23.374;2022-10-30T11:52:47;7.47;;;3.88;;
10461;SDS011;5278;42.656;23.374;2022-10-30T11:55:17;6.05;;;3.85;;
10461;SDS011;5278;42.656;23.374;2022-10-30T11:57:49;7.53;;;3.65;;
10461;SDS011;5278;42.656;23.374;2022-10-30T12:00:18;4.90;;;3.95;;
10461;SDS011;5278;42.656;23.374;2022-10-30T12:02:47;6.15;;;3.95;;
10461;SDS011;5278;42.656;23.374;2022-10-30T12:05:37;7.78;;;4.32;;
10461;SDS011;5278;42.656;23.374;2022-10-30T12:08:14;3.90;;;3.40;;
10461;SDS011;5278;42.656;23.374;2022-10-30T12:10:50;5.13;;;3.40;;
10461;SDS011;5278;42.656;23.374;2022-10-30T12:13:21;7.10;;;3.95;;
10461;SDS011;5278;42.656;23.374;2022-10-30T12:16:02;5.77;;;3.67;;
10461;SDS011;5278;42.656;23.374;2022-10-30T12:18:32;5.63;;;3.80;;
10461;SDS011;5278;42.656;23.374;2022-10-30T12:21:01;7.40;;;3.47;;
10461;SDS011;5278;42.656;23.374;2022-10-30T12:23:28;5.80;;;3.50;;
10461;SDS011;5278;42.656;23.374;2022-10-30T12:25:58;4.50;;;3.63;;
10461;SDS011;5278;42.656;23.374;2022-10-30T12:28:27;6.50;;;4.27;;
10461;SDS011;5278;42.656;23.374;2022-10-30T12:30:56;3.87;;;3.47;;
10461;SDS011;5278;42.656;23.374;2022-10-30T12:33:26;3.27;;;2.93;;
10461;SDS011;5278;42.656;23.374;2022-10-30T12:35:58;3.80;;;3.40;;
10461;SDS011;5278;42.656;23.374;2022-10-30T12:38:29;5.53;;;3.63;;
10461;SDS011;5278;42.656;23.374;2022-10-30T12:41:02;4.17;;;2.90;;
10461;SDS011;5278;42.656;23.374;2022-10-30T12:43:37;4.47;;;3.47;;
10461;SDS011;5278;42.656;23.374;2022-10-30T12:46:13;4.77;;;2.83;;
10461;SDS011;5278;42.656;23.374;2022-10-30T12:48:51;4.10;;;3.07;;
10461;SDS011;5278;42.656;23.374;2022-10-30T12:51:25;4.30;;;3.47;;
10461;SDS011;5278;42.656;23.374;2022-10-30T12:54:01;5.43;;;3.43;;
10461;SDS011;5278;42.656;23.374;2022-10-30T12:56:35;5.13;;;2.97;;
10461;SDS011;5278;42.656;23.374;2022-10-30T12:59:12;5.50;;;2.97;;
10461;SDS011;5278;42.656;23.374;2022-10-30T13:01:54;5.57;;;2.83;;
10461;SDS011;5278;42.656;23.374;2022-10-30T13:04:25;5.23;;;3.13;;
10461;SDS011;5278;42.656;23.374;2022-10-30T13:07:01;5.90;;;3.77;;
10461;SDS011;5278;42.656;23.374;2022-10-30T13:09:34;5.53;;;3.03;;
10461;SDS011;5278;42.656;23.374;2022-10-30T13:12:05;4.43;;;2.90;;
10461;SDS011;5278;42.656;23.374;2022-10-30T13:14:37;6.37;;;4.27;;
10461;SDS011;5278;42.656;23.374;2022-10-30T13:17:08;5.23;;;3.00;;
10461;SDS011;5278;42.656;23.374;2022-10-30T13:19:37;5.40;;;2.90;;
10461;SDS011;5278;42.656;23.374;2022-10-30T13:22:07;7.77;;;2.83;;
10461;SDS011;5278;42.656;23.374;2022-10-30T13:24:45;6.00;;;4.03;;
10461;SDS011;5278;42.656;23.374;2022-10-30T13:27:20;3.50;;;2.80;;
10461;SDS011;5278;42.656;23.374;2022-10-30T13:29:57;3.10;;;2.50;;
10461;SDS011;5278;42.656;23.374;2022-10-30T13:32:32;4.17;;;2.30;;
10461;SDS011;5278;42.656;23.374;2022-10-30T13:35:14;5.67;;;2.60;;
10461;SDS011;5278;42.656;23.374;2022-10-30T13:37:48;3.03;;;2.30;;
10461;SDS011;5278;42.656;23.374;2022-10-30T13:40:27;5.83;;;2.80;;
10461;SDS011;5278;42.656;23.374;2022-10-30T13:43:00;2.40;;;2.20;;
10461;SDS011;5278;42.656;23.374;2022-10-30T13:45:52;5.00;;;2.07;;
10461;SDS011;5278;42.656;23.374;2022-10-30T13:48:32;2.40;;;2.00;;
10461;SDS011;5278;42.656;23.374;2022-10-30T13:51:14;3.70;;;2.20;;
10461;SDS011;5278;42.656;23.374;2022-10-30T13:53:55;4.50;;;2.50;;
10461;SDS011;5278;42.656;23.374;2022-10-30T13:56:30;2.83;;;2.10;;
10461;SDS011;5278;42.656;23.374;2022-10-30T13:59:01;2.40;;;2.20;;
10461;SDS011;5278;42.656;23.374;2022-10-30T14:01:36;4.20;;;2.27;;
10461;SDS011;5278;42.656;23.374;2022-10-30T14:04:09;6.43;;;2.40;;
10461;SDS011;5278;42.656;23.374;2022-10-30T14:06:42;3.33;;;2.00;;
10461;SDS011;5278;42.656;23.374;2022-10-30T14:09:18;4.60;;;2.10;;
10461;SDS011;5278;42.656;23.374;2022-10-30T14:11:53;4.40;;;2.60;;
10461;SDS011;5278;42.656;23.374;2022-10-30T14:14:24;6.57;;;2.33;;
10461;SDS011;5278;42.656;23.374;2022-10-30T14:17:07;3.73;;;2.60;;
10461;SDS011;5278;42.656;23.374;2022-10-30T14:22:36;11.27;;;2.80;;
10461;SDS011;5278;42.656;23.374;2022-10-30T14:25:10;5.20;;;2.67;;
10461;SDS011;5278;42.656;23.374;2022-10-30T14:27:40;8.67;;;2.93;;
10461;SDS011;5278;42.656;23.374;2022-10-30T14:30:15;6.40;;;2.60;;
10461;SDS011;5278;42.656;23.374;2022-10-30T14:32:47;4.97;;;2.70;;
10461;SDS011;5278;42.656;23.374;2022-10-30T14:35:29;5.50;;;3.50;;
10461;SDS011;5278;42.656;23.374;2022-10-30T14:41:05;4.73;;;2.90;;
10461;SDS011;5278;42.656;23.374;2022-10-30T14:43:51;5.80;;;2.80;;
10461;SDS011;5278;42.656;23.374;2022-10-30T14:46:29;3.67;;;2.60;;
10461;SDS011;5278;42.656;23.374;2022-10-30T14:49:08;3.63;;;2.47;;
10461;SDS011;5278;42.656;23.374;2022-10-30T14:51:43;2.97;;;2.50;;
10461;SDS011;5278;42.656;23.374;2022-10-30T14:54:18;5.20;;;2.87;;
10461;SDS011;5278;42.656;23.374;2022-10-30T14:56:51;6.27;;;3.67;;
10461;SDS011;5278;42.656;23.374;2022-10-30T14:59:29;8.17;;;2.80;;
10461;SDS011;5278;42.656;23.374;2022-10-30T15:05:11;5.50;;;2.60;;
10461;SDS011;5278;42.656;23.374;2022-10-30T15:07:56;3.20;;;2.70;;
10461;SDS011;5278;42.656;23.374;2022-10-30T15:10:35;8.00;;;3.10;;
10461;SDS011;5278;42.656;23.374;2022-10-30T15:13:18;6.10;;;2.93;;
10461;SDS011;5278;42.656;23.374;2022-10-30T15:15:56;4.57;;;3.20;;
10461;SDS011;5278;42.656;23.374;2022-10-30T15:18:24;4.33;;;2.90;;
10461;SDS011;5278;42.656;23.374;2022-10-30T15:20:52;6.30;;;2.87;;